createdAt,value
2019-05-03T00:00:39.577Z,977.49
2019-05-03T00:01:39.578Z,977.52
2019-05-03T00:02:41.601Z,977.52
2019-05-03T00:03:39.582Z,977.54
2019-05-03T00:04:39.580Z,977.53
2019-05-03T00:05:39.582Z,977.50
2019-05-03T00:06:39.588Z,977.50
2019-05-03T00:07:39.584Z,977.50
2019-05-03T00:08:41.413Z,977.51
2019-05-03T00:09:39.587Z,977.49
2019-05-03T00:10:39.586Z,977.52
2019-05-03T00:11:39.588Z,977.51
2019-05-03T00:12:39.590Z,977.52
2019-05-03T00:13:39.594Z,977.52
2019-05-03T00:14:41.605Z,977.49
2019-05-03T00:15:39.595Z,977.47
2019-05-03T00:16:41.586Z,977.56
2019-05-03T00:17:39.595Z,977.53
2019-05-03T00:18:39.600Z,977.46
2019-05-03T00:19:39.599Z,977.50
2019-05-03T00:20:39.606Z,977.43
2019-05-03T00:21:39.609Z,977.47
2019-05-03T00:22:39.602Z,977.51
2019-05-03T00:23:41.634Z,977.49
2019-05-03T00:24:39.603Z,977.49
2019-05-03T00:25:39.604Z,977.49
2019-05-03T00:26:39.606Z,977.47
2019-05-03T00:27:39.607Z,977.54
2019-05-03T00:28:39.614Z,977.52
2019-05-03T00:29:41.434Z,977.48
2019-05-03T00:30:39.610Z,977.50
2019-05-03T00:31:39.611Z,977.52
2019-05-03T00:32:39.612Z,977.52
2019-05-03T00:33:39.613Z,977.51
2019-05-03T00:34:41.700Z,977.48
2019-05-03T00:35:39.615Z,977.46
2019-05-03T00:36:39.620Z,977.46
2019-05-03T00:37:39.622Z,977.44
2019-05-03T00:38:39.622Z,977.45
2019-05-03T00:39:41.728Z,977.45
2019-05-03T00:40:41.605Z,977.44
2019-05-03T00:41:39.628Z,977.44
2019-05-03T00:42:39.622Z,977.42
2019-05-03T00:43:39.629Z,977.45
2019-05-03T00:44:39.626Z,977.45
2019-05-03T00:45:39.626Z,977.40
2019-05-03T00:46:39.631Z,977.42
2019-05-03T00:47:39.630Z,977.40
2019-05-03T00:48:39.631Z,977.41
2019-05-03T00:49:39.634Z,977.39
2019-05-03T00:50:39.632Z,977.40
2019-05-03T00:51:39.633Z,977.39
2019-05-03T00:52:39.635Z,977.39
2019-05-03T00:53:39.643Z,977.39
2019-05-03T00:54:39.637Z,977.39
2019-05-03T00:55:39.640Z,977.38
2019-05-03T00:56:42.636Z,977.36
2019-05-03T00:57:41.496Z,977.39
2019-05-03T00:58:39.640Z,977.39
2019-05-03T00:59:39.643Z,977.35
2019-05-03T01:00:41.645Z,977.35
2019-05-03T01:01:39.643Z,977.34
2019-05-03T01:02:39.644Z,977.34
2019-05-03T01:03:39.647Z,977.34
2019-05-03T01:04:39.648Z,977.34
2019-05-03T01:05:39.647Z,977.33
2019-05-03T01:06:39.653Z,977.36
2019-05-03T01:07:39.649Z,977.34
2019-05-03T01:08:39.652Z,977.34
2019-05-03T01:09:39.652Z,977.33
2019-05-03T01:10:39.659Z,977.30
2019-05-03T01:11:41.718Z,977.33
2019-05-03T01:12:41.535Z,977.32
2019-05-03T01:13:39.664Z,977.29
2019-05-03T01:14:39.661Z,977.32
2019-05-03T01:15:39.659Z,977.31
2019-05-03T01:16:39.673Z,977.31
2019-05-03T01:17:39.660Z,977.33
2019-05-03T01:18:41.270Z,977.31
2019-05-03T01:19:39.672Z,977.31
2019-05-03T01:20:39.662Z,977.33
2019-05-03T01:21:39.663Z,977.36
2019-05-03T01:22:39.664Z,977.34
2019-05-03T01:23:39.666Z,977.30
2019-05-03T01:24:39.668Z,977.34
2019-05-03T01:25:39.669Z,977.34
2019-05-03T01:26:39.672Z,977.34
2019-05-03T01:27:39.670Z,977.33
2019-05-03T01:28:39.671Z,977.39
2019-05-03T01:29:39.678Z,977.37
2019-05-03T01:30:39.676Z,977.37
2019-05-03T01:31:39.677Z,977.36
2019-05-03T01:32:41.714Z,977.36
2019-05-03T01:33:39.677Z,977.36
2019-05-03T01:34:41.514Z,977.38
2019-05-03T01:35:39.678Z,977.37
2019-05-03T01:36:39.682Z,977.38
2019-05-03T01:37:39.679Z,977.40
2019-05-03T01:38:39.683Z,977.38
2019-05-03T01:39:39.683Z,977.40
2019-05-03T01:40:41.778Z,977.41
2019-05-03T01:41:41.592Z,977.41
2019-05-03T01:42:39.687Z,977.43
2019-05-03T01:43:41.508Z,977.45
2019-05-03T01:44:39.689Z,977.47
2019-05-03T01:45:39.693Z,977.46
2019-05-03T01:46:39.693Z,977.48
2019-05-03T01:47:39.700Z,977.50
2019-05-03T01:48:41.520Z,977.52
2019-05-03T01:49:39.693Z,977.51
2019-05-03T01:50:39.694Z,977.48
2019-05-03T01:51:39.695Z,977.47
2019-05-03T01:52:39.702Z,977.51
2019-05-03T01:53:41.572Z,977.44
2019-05-03T01:54:39.699Z,977.46
2019-05-03T01:55:44.461Z,977.46
2019-05-03T01:56:39.701Z,977.48
2019-05-03T01:57:39.701Z,977.43
2019-05-03T01:58:41.623Z,977.47
2019-05-03T01:59:39.715Z,977.44
2019-05-03T02:00:39.705Z,977.44
2019-05-03T02:01:39.710Z,977.43
2019-05-03T02:02:41.840Z,977.42
2019-05-03T02:03:41.709Z,977.43
2019-05-03T02:04:41.641Z,977.44
2019-05-03T02:05:39.711Z,977.43
2019-05-03T02:06:39.710Z,977.45
2019-05-03T02:07:39.711Z,977.43
2019-05-03T02:08:41.688Z,977.48
2019-05-03T02:09:41.575Z,977.51
2019-05-03T02:10:39.714Z,977.48
2019-05-03T02:11:39.718Z,977.44
2019-05-03T02:12:41.649Z,977.50
2019-05-03T02:13:39.719Z,977.49
2019-05-03T02:14:39.721Z,977.49
2019-05-03T02:15:39.732Z,977.52
2019-05-03T02:16:41.861Z,977.48
2019-05-03T02:17:39.721Z,977.47
2019-05-03T02:18:39.723Z,977.45
2019-05-03T02:19:39.726Z,977.45
2019-05-03T02:20:41.705Z,977.48
2019-05-03T02:21:41.574Z,977.47
2019-05-03T02:22:39.727Z,977.46
2019-05-03T02:23:39.729Z,977.42
2019-05-03T02:24:39.730Z,977.45
2019-05-03T02:25:41.712Z,977.44
2019-05-03T02:26:39.733Z,977.44
2019-05-03T02:27:39.731Z,977.42
2019-05-03T02:28:39.732Z,977.42
2019-05-03T02:29:41.732Z,977.45
2019-05-03T02:30:39.735Z,977.45
2019-05-03T02:31:39.740Z,977.50
2019-05-03T02:32:39.740Z,977.49
2019-05-03T02:33:39.736Z,977.53
2019-05-03T02:34:39.746Z,977.50
2019-05-03T02:35:42.712Z,977.50
2019-05-03T02:36:42.536Z,977.49
2019-05-03T02:37:39.752Z,977.53
2019-05-03T02:38:39.744Z,977.53
2019-05-03T02:39:42.498Z,977.52
2019-05-03T02:40:42.595Z,977.52
2019-05-03T02:41:39.745Z,977.51
2019-05-03T02:42:39.758Z,977.51
2019-05-03T02:43:39.749Z,977.48
2019-05-03T02:44:39.750Z,977.50
2019-05-03T02:45:39.749Z,977.49
2019-05-03T02:46:39.754Z,977.52
2019-05-03T02:47:39.753Z,977.46
2019-05-03T02:48:39.757Z,977.46
2019-05-03T02:49:39.752Z,977.47
2019-05-03T02:50:39.757Z,977.50
2019-05-03T02:51:39.756Z,977.47
2019-05-03T02:52:39.759Z,977.51
2019-05-03T02:53:39.767Z,977.48
2019-05-03T02:54:39.762Z,977.51
2019-05-03T02:55:39.759Z,977.59
2019-05-03T02:56:39.772Z,977.55
2019-05-03T02:57:39.762Z,977.59
2019-05-03T02:58:39.761Z,977.58
2019-05-03T02:59:39.763Z,977.57
2019-05-03T03:00:39.765Z,977.59
2019-05-03T03:01:39.765Z,977.58
2019-05-03T03:02:39.768Z,977.60
2019-05-03T03:03:39.766Z,977.59
2019-05-03T03:04:39.771Z,977.57
2019-05-03T03:05:39.767Z,977.60
2019-05-03T03:06:39.771Z,977.60
2019-05-03T03:07:39.773Z,977.60
2019-05-03T03:08:39.774Z,977.58
2019-05-03T03:09:39.779Z,977.58
2019-05-03T03:10:39.776Z,977.56
2019-05-03T03:11:39.779Z,977.59
2019-05-03T03:12:39.780Z,977.58
2019-05-03T03:13:39.776Z,977.59
2019-05-03T03:14:39.775Z,977.56
2019-05-03T03:15:39.777Z,977.61
2019-05-03T03:16:39.780Z,977.56
2019-05-03T03:17:39.786Z,977.59
2019-05-03T03:18:39.787Z,977.59
2019-05-03T03:19:39.781Z,977.57
2019-05-03T03:20:39.787Z,977.56
2019-05-03T03:21:39.782Z,977.58
2019-05-03T03:22:39.785Z,977.60
2019-05-03T03:23:39.786Z,977.61
2019-05-03T03:24:39.789Z,977.61
2019-05-03T03:25:39.796Z,977.60
2019-05-03T03:26:43.159Z,977.66
2019-05-03T03:27:39.788Z,977.63
2019-05-03T03:28:39.797Z,977.63
2019-05-03T03:29:39.790Z,977.63
2019-05-03T03:30:39.792Z,977.63
2019-05-03T03:31:39.794Z,977.63
2019-05-03T03:32:39.797Z,977.62
2019-05-03T03:33:40.598Z,977.64
2019-05-03T03:34:39.796Z,977.64
2019-05-03T03:35:39.811Z,977.62
2019-05-03T03:36:54.422Z,977.62
2019-05-03T03:37:39.798Z,977.65
2019-05-03T03:38:39.801Z,977.68
2019-05-03T03:39:39.809Z,977.65
2019-05-03T03:40:39.804Z,977.66
2019-05-03T03:41:39.808Z,977.68
2019-05-03T03:42:39.804Z,977.70
2019-05-03T03:43:39.809Z,977.67
2019-05-03T03:44:39.806Z,977.69
2019-05-03T03:45:39.809Z,977.72
2019-05-03T03:46:39.809Z,977.69
2019-05-03T03:47:39.809Z,977.67
2019-05-03T03:48:39.811Z,977.74
2019-05-03T03:49:39.809Z,977.75
2019-05-03T03:50:39.816Z,977.77
2019-05-03T03:51:39.817Z,977.73
2019-05-03T03:52:39.814Z,977.77
2019-05-03T03:53:39.823Z,977.77
2019-05-03T03:54:39.815Z,977.78
2019-05-03T03:55:39.826Z,977.76
2019-05-03T03:56:54.525Z,977.76
2019-05-03T03:57:39.824Z,977.81
2019-05-03T03:58:39.820Z,977.79
2019-05-03T03:59:39.819Z,977.80
2019-05-03T04:00:39.822Z,977.77
2019-05-03T04:01:39.822Z,977.77
2019-05-03T04:02:39.823Z,977.83
2019-05-03T04:03:39.829Z,977.78
2019-05-03T04:04:39.826Z,977.82
2019-05-03T04:05:39.830Z,977.81
2019-05-03T04:06:39.827Z,977.88
2019-05-03T04:07:39.830Z,977.90
2019-05-03T04:08:39.838Z,977.94
2019-05-03T04:09:39.838Z,977.94
2019-05-03T04:10:39.832Z,977.98
2019-05-03T04:11:39.833Z,977.95
2019-05-03T04:12:39.833Z,977.98
2019-05-03T04:13:39.836Z,978.04
2019-05-03T04:14:39.834Z,977.98
2019-05-03T04:15:39.836Z,977.98
2019-05-03T04:16:39.837Z,977.98
2019-05-03T04:17:39.842Z,977.97
2019-05-03T04:18:39.845Z,978.00
2019-05-03T04:19:39.847Z,977.99
2019-05-03T04:20:39.841Z,977.99
2019-05-03T04:21:39.843Z,978.06
2019-05-03T04:22:39.846Z,978.03
2019-05-03T04:23:39.844Z,978.04
2019-05-03T04:24:39.845Z,978.04
2019-05-03T04:25:39.854Z,978.05
2019-05-03T04:26:39.846Z,978.04
2019-05-03T04:27:39.849Z,978.04
2019-05-03T04:28:39.865Z,978.06
2019-05-03T04:29:39.901Z,978.02
2019-05-03T04:30:39.865Z,978.06
2019-05-03T04:31:39.855Z,978.03
2019-05-03T04:32:39.857Z,977.99
2019-05-03T04:33:39.861Z,977.99
2019-05-03T04:34:39.855Z,978.03
2019-05-03T04:35:39.858Z,978.03
2019-05-03T04:36:39.858Z,978.04
2019-05-03T04:37:39.859Z,978.06
2019-05-03T04:38:39.860Z,978.10
2019-05-03T04:39:39.862Z,978.06
2019-05-03T04:40:39.864Z,978.06
2019-05-03T04:41:39.863Z,978.09
2019-05-03T04:42:39.873Z,978.09
2019-05-03T04:43:39.865Z,978.07
2019-05-03T04:44:39.874Z,978.10
2019-05-03T04:45:39.868Z,978.09
2019-05-03T04:46:39.876Z,978.10
2019-05-03T04:47:39.871Z,978.08
2019-05-03T04:48:39.872Z,978.13
2019-05-03T04:49:39.871Z,978.12
2019-05-03T04:50:39.888Z,978.14
2019-05-03T04:51:39.872Z,978.14
2019-05-03T04:52:39.876Z,978.15
2019-05-03T04:53:39.888Z,978.15
2019-05-03T04:54:39.877Z,978.15
2019-05-03T04:55:39.877Z,978.19
2019-05-03T04:56:39.879Z,978.21
2019-05-03T04:57:45.503Z,978.21
2019-05-03T04:58:39.884Z,978.25
2019-05-03T04:59:39.881Z,978.26
2019-05-03T05:00:39.882Z,978.27
2019-05-03T05:01:39.883Z,978.29
2019-05-03T05:02:39.889Z,978.27
2019-05-03T05:03:39.885Z,978.31
2019-05-03T05:04:39.887Z,978.35
2019-05-03T05:05:39.888Z,978.34
2019-05-03T05:06:39.887Z,978.33
2019-05-03T05:07:39.890Z,978.34
2019-05-03T05:08:39.892Z,978.31
2019-05-03T05:09:39.894Z,978.34
2019-05-03T05:10:39.899Z,978.32
2019-05-03T05:11:39.895Z,978.32
2019-05-03T05:12:39.897Z,978.39
2019-05-03T05:13:39.899Z,978.41
2019-05-03T05:14:39.901Z,978.36
2019-05-03T05:15:39.916Z,978.37
2019-05-03T05:16:39.972Z,978.38
2019-05-03T05:17:39.906Z,978.36
2019-05-03T05:18:39.906Z,978.43
2019-05-03T05:19:39.911Z,978.42
2019-05-03T05:20:39.917Z,978.46
2019-05-03T05:21:39.910Z,978.45
2019-05-03T05:22:39.913Z,978.46
2019-05-03T05:23:39.913Z,978.47
2019-05-03T05:24:39.915Z,978.47
2019-05-03T05:25:39.919Z,978.47
2019-05-03T05:26:39.921Z,978.48
2019-05-03T05:27:48.679Z,978.53
2019-05-03T05:28:39.924Z,978.47
2019-05-03T05:29:39.923Z,978.55
2019-05-03T05:30:39.923Z,978.49
2019-05-03T05:31:39.927Z,978.52
2019-05-03T05:32:39.928Z,978.58
2019-05-03T05:33:39.940Z,978.59
2019-05-03T05:34:39.932Z,978.61
2019-05-03T05:35:39.936Z,978.65
2019-05-03T05:36:39.943Z,978.62
2019-05-03T05:37:39.941Z,978.66
2019-05-03T05:38:39.983Z,978.67
2019-05-03T05:39:39.942Z,978.69
2019-05-03T05:40:39.942Z,978.73
2019-05-03T05:41:39.944Z,978.74
2019-05-03T05:42:39.946Z,978.75
2019-05-03T05:43:39.947Z,978.74
2019-05-03T05:44:39.952Z,978.83
2019-05-03T05:45:39.953Z,978.83
2019-05-03T05:46:39.955Z,978.83
2019-05-03T05:47:39.955Z,978.83
2019-05-03T05:48:39.958Z,978.91
2019-05-03T05:49:39.960Z,978.89
2019-05-03T05:50:39.963Z,978.88
2019-05-03T05:51:39.965Z,978.95
2019-05-03T05:52:39.975Z,978.90
2019-05-03T05:53:39.976Z,978.98
2019-05-03T05:54:39.977Z,978.97
2019-05-03T05:55:39.982Z,978.98
2019-05-03T06:07:44.312Z,979.20
2019-05-03T06:09:36.848Z,979.24
2019-05-03T06:10:36.842Z,979.26
2019-05-03T06:12:31.488Z,979.27
2019-05-03T06:13:31.457Z,979.29
2019-05-03T06:15:26.729Z,979.33
2019-05-03T06:16:24.645Z,979.34
2019-05-03T06:18:17.696Z,979.32
2019-05-03T06:19:17.692Z,979.34
2019-05-03T06:21:12.322Z,979.39
2019-05-03T06:22:12.315Z,979.38
2019-05-03T06:24:06.006Z,979.39
2019-05-03T06:25:06.711Z,979.38
2019-05-03T06:27:00.055Z,979.43
2019-05-03T06:28:00.048Z,979.44
2019-05-03T06:29:54.565Z,979.38
2019-05-03T06:30:54.495Z,979.38
2019-05-03T06:32:46.302Z,979.40
2019-05-03T06:33:46.290Z,979.45
2019-05-03T06:35:39.443Z,979.47
2019-05-03T06:36:39.410Z,979.51
2019-05-03T06:38:34.431Z,979.48
2019-05-03T06:39:35.119Z,979.52
2019-05-03T06:41:26.173Z,979.52
2019-05-03T06:42:26.141Z,979.53
2019-05-03T06:44:27.014Z,979.60
2019-05-03T06:45:20.770Z,979.57
2019-05-03T06:47:14.874Z,979.59
2019-05-03T06:48:17.162Z,979.60
2019-05-03T06:50:07.021Z,979.65
2019-05-03T06:51:10.972Z,979.66
2019-05-03T06:53:05.896Z,979.68
2019-05-03T06:54:00.132Z,979.66
2019-05-03T06:55:55.297Z,979.70
2019-05-03T06:56:55.333Z,979.68
2019-05-03T06:58:46.419Z,979.67
2019-05-03T06:59:46.367Z,979.65
2019-05-03T07:01:39.491Z,979.67
2019-05-03T07:02:39.501Z,979.66
2019-05-03T07:04:34.608Z,979.71
2019-05-03T07:05:32.608Z,979.72
2019-05-03T07:07:35.306Z,979.73
2019-05-03T07:08:34.463Z,979.79
2019-05-03T07:10:26.369Z,979.78
2019-05-03T07:11:26.394Z,979.82
2019-05-03T07:13:25.447Z,979.85
2019-05-03T07:14:24.742Z,979.89
2019-05-03T07:15:25.198Z,979.93
2019-05-03T07:16:25.324Z,979.92
2019-05-03T07:17:24.843Z,979.92
2019-05-03T07:18:24.771Z,979.91
2019-05-03T07:19:24.992Z,979.93
2019-05-03T07:20:25.509Z,979.97
2019-05-03T07:21:24.707Z,979.95
2019-05-03T07:22:24.558Z,979.98
2019-05-03T07:23:24.613Z,979.96
2019-05-03T07:24:24.918Z,980.01
2019-05-03T07:25:25.559Z,980.02
2019-05-03T07:26:25.365Z,979.99
2019-05-03T07:27:24.877Z,980.05
2019-05-03T07:28:24.846Z,980.02
2019-05-03T07:29:25.542Z,980.03
2019-05-03T07:30:24.878Z,980.04
2019-05-03T07:31:25.535Z,980.04
2019-05-03T07:32:24.804Z,980.04
2019-05-03T07:33:25.425Z,980.01
2019-05-03T07:34:24.820Z,980.01
2019-05-03T07:35:25.169Z,979.99
2019-05-03T07:36:28.062Z,979.99
2019-05-03T07:37:24.661Z,980.01
2019-05-03T07:38:24.908Z,980.02
2019-05-03T07:39:24.633Z,980.05
2019-05-03T07:40:25.246Z,980.05
2019-05-03T07:41:27.013Z,980.00
2019-05-03T07:42:25.650Z,980.00
2019-05-03T07:43:24.636Z,979.99
2019-05-03T07:44:25.489Z,980.03
2019-05-03T07:45:25.443Z,980.01
2019-05-03T07:46:24.831Z,980.01
2019-05-03T07:47:24.757Z,979.99
2019-05-03T07:48:25.422Z,980.01
2019-05-03T07:49:24.964Z,980.00
2019-05-03T07:50:25.876Z,980.00
2019-05-03T07:51:24.932Z,979.99
2019-05-03T07:52:25.871Z,979.94
2019-05-03T07:53:25.248Z,979.94
2019-05-03T07:54:24.905Z,979.95
2019-05-03T07:55:24.941Z,979.97
2019-05-03T07:56:25.474Z,979.89
2019-05-03T07:57:25.474Z,979.94
2019-05-03T07:58:25.260Z,979.93
2019-05-03T07:59:25.124Z,979.91
2019-05-03T08:00:25.330Z,979.94
2019-05-03T08:01:25.179Z,979.88
2019-05-03T08:02:27.242Z,979.89
2019-05-03T08:03:24.578Z,979.92
2019-05-03T08:04:25.508Z,979.89
2019-05-03T08:05:24.734Z,979.89
2019-05-03T08:06:24.805Z,979.91
2019-05-03T08:07:25.699Z,979.91
2019-05-03T08:08:25.033Z,979.90
2019-05-03T08:09:24.733Z,979.89
2019-05-03T08:10:25.628Z,979.90
2019-05-03T08:11:24.973Z,979.83
2019-05-03T08:12:24.738Z,979.88
2019-05-03T08:13:25.318Z,979.86
2019-05-03T08:14:25.245Z,979.86
2019-05-03T08:15:24.667Z,979.81
2019-05-03T08:16:25.275Z,979.86
2019-05-03T08:17:25.605Z,979.86
2019-05-03T08:18:25.705Z,979.88
2019-05-03T08:19:27.005Z,979.87
2019-05-03T08:20:24.895Z,979.88
2019-05-03T08:21:25.284Z,979.89
2019-05-03T08:22:25.614Z,979.86
2019-05-03T08:23:29.867Z,979.84
2019-05-03T08:24:25.334Z,979.87
2019-05-03T08:25:24.965Z,979.82
2019-05-03T08:26:25.648Z,979.86
2019-05-03T08:27:25.170Z,979.85
2019-05-03T08:28:24.719Z,979.86
2019-05-03T08:29:24.962Z,979.87
2019-05-03T08:30:25.081Z,979.90
2019-05-03T08:31:26.521Z,979.88
2019-05-03T08:32:24.665Z,979.88
2019-05-03T08:33:24.985Z,979.89
2019-05-03T08:34:25.739Z,979.91
2019-05-03T08:35:24.667Z,979.91
2019-05-03T08:36:24.840Z,979.94
2019-05-03T08:37:24.671Z,979.93
2019-05-03T08:38:25.724Z,979.95
2019-05-03T08:39:25.171Z,979.98
2019-05-03T08:40:24.705Z,979.96
2019-05-03T08:41:24.757Z,979.95
2019-05-03T08:42:25.446Z,979.94
2019-05-03T08:43:25.514Z,979.91
2019-05-03T08:44:25.025Z,979.92
2019-05-03T08:45:25.609Z,979.94
2019-05-03T08:46:25.383Z,979.95
2019-05-03T08:47:24.881Z,979.96
2019-05-03T08:48:25.001Z,979.95
2019-05-03T08:49:25.521Z,979.91
2019-05-03T08:50:25.696Z,979.89
2019-05-03T08:51:25.114Z,979.88
2019-05-03T08:52:24.890Z,979.93
2019-05-03T08:53:25.657Z,979.91
2019-05-03T08:54:25.582Z,979.91
2019-05-03T08:55:25.051Z,979.89
2019-05-03T08:56:24.740Z,979.89
2019-05-03T08:57:25.336Z,979.86
2019-05-03T08:58:25.640Z,979.85
2019-05-03T08:59:29.839Z,979.82
2019-05-03T09:00:24.976Z,979.82
2019-05-03T09:01:25.182Z,979.78
2019-05-03T09:02:25.806Z,979.81
2019-05-03T09:03:25.043Z,979.79
2019-05-03T09:04:35.988Z,979.83
2019-05-03T09:05:25.049Z,979.77
2019-05-03T09:06:24.883Z,979.79
2019-05-03T09:07:25.362Z,979.82
2019-05-03T09:08:24.985Z,979.81
2019-05-03T09:09:25.452Z,979.81
2019-05-03T09:10:24.985Z,979.80
2019-05-03T09:11:33.321Z,979.83
2019-05-03T09:12:25.227Z,979.76
2019-05-03T09:13:25.149Z,979.81
2019-05-03T09:14:32.689Z,979.77
2019-05-03T09:15:24.764Z,979.77
2019-05-03T09:16:25.187Z,979.81
2019-05-03T09:17:24.824Z,979.78
2019-05-03T09:18:25.781Z,979.86
2019-05-03T09:19:25.310Z,979.80
2019-05-03T09:20:25.065Z,979.82
2019-05-03T09:21:25.502Z,979.85
2019-05-03T09:22:25.574Z,979.88
2019-05-03T09:23:25.967Z,979.82
2019-05-03T09:24:24.797Z,979.79
2019-05-03T09:25:24.846Z,979.83
2019-05-03T09:26:29.006Z,979.85
2019-05-03T09:27:24.874Z,979.88
2019-05-03T09:28:26.463Z,979.88
2019-05-03T09:29:25.527Z,979.87
2019-05-03T09:30:25.170Z,979.88
2019-05-03T09:31:24.885Z,979.92
2019-05-03T09:32:25.678Z,979.94
2019-05-03T09:33:24.998Z,979.91
2019-05-03T09:34:25.678Z,979.92
2019-05-03T09:35:30.500Z,979.92
2019-05-03T09:36:25.327Z,979.94
2019-05-03T09:37:25.091Z,979.93
2019-05-03T09:38:25.641Z,979.92
2019-05-03T09:39:24.835Z,979.92
2019-05-03T09:40:24.842Z,979.97
2019-05-03T09:41:25.659Z,979.89
2019-05-03T09:42:24.921Z,979.92
2019-05-03T09:43:25.186Z,979.94
2019-05-03T09:44:24.848Z,979.95
2019-05-03T09:45:24.853Z,979.94
2019-05-03T09:46:26.472Z,979.96
2019-05-03T09:47:25.205Z,979.98
2019-05-03T09:48:25.481Z,979.96
2019-05-03T09:49:25.331Z,979.96
2019-05-03T09:50:24.875Z,979.93
2019-05-03T09:51:25.578Z,979.93
2019-05-03T09:52:25.185Z,979.90
2019-05-03T09:53:25.634Z,979.94
2019-05-03T09:54:25.496Z,979.91
2019-05-03T09:55:25.344Z,979.89
2019-05-03T09:56:25.919Z,979.85
2019-05-03T09:57:24.917Z,979.82
2019-05-03T09:58:26.371Z,979.81
2019-05-03T09:59:25.507Z,979.85
2019-05-03T10:00:24.900Z,979.83
2019-05-03T10:01:25.591Z,979.87
2019-05-03T10:02:24.902Z,979.81
2019-05-03T10:03:24.904Z,979.85
2019-05-03T10:04:25.572Z,979.85
2019-05-03T10:05:25.541Z,979.85
2019-05-03T10:06:25.141Z,979.82
2019-05-03T10:07:25.810Z,979.79
2019-05-03T10:08:25.449Z,979.83
2019-05-03T10:09:26.048Z,979.80
2019-05-03T10:10:24.931Z,979.77
2019-05-03T10:11:25.447Z,979.73
2019-05-03T10:12:25.469Z,979.74
2019-05-03T10:13:26.919Z,979.73
2019-05-03T10:14:24.936Z,979.76
2019-05-03T10:15:26.043Z,979.77
2019-05-03T10:16:24.954Z,979.71
2019-05-03T10:17:25.295Z,979.70
2019-05-03T10:18:25.456Z,979.68
2019-05-03T10:19:37.119Z,979.69
2019-05-03T10:20:25.293Z,979.67
2019-05-03T10:21:25.795Z,979.71
2019-05-03T10:22:25.265Z,979.69
2019-05-03T10:23:24.965Z,979.67
2019-05-03T10:24:24.969Z,979.64
2019-05-03T10:25:24.971Z,979.69
2019-05-03T10:26:24.974Z,979.68
2019-05-03T10:27:25.233Z,979.65
2019-05-03T10:28:25.192Z,979.69
2019-05-03T10:29:25.155Z,979.68
2019-05-03T10:30:24.989Z,979.69
2019-05-03T10:31:25.244Z,979.65
2019-05-03T10:32:25.364Z,979.69
2019-05-03T10:33:25.981Z,979.65
2019-05-03T10:34:25.001Z,979.65
2019-05-03T10:35:25.004Z,979.67
2019-05-03T10:36:25.118Z,979.68
2019-05-03T10:37:25.016Z,979.70
2019-05-03T10:38:25.020Z,979.67
2019-05-03T10:39:26.257Z,979.65
2019-05-03T10:40:25.024Z,979.62
2019-05-03T10:41:25.192Z,979.63
2019-05-03T10:42:25.030Z,979.65
2019-05-03T10:43:25.037Z,979.63
2019-05-03T10:44:25.035Z,979.70
2019-05-03T10:45:27.850Z,979.66
2019-05-03T10:46:25.198Z,979.64
2019-05-03T10:47:25.471Z,979.59
2019-05-03T10:48:25.184Z,979.61
2019-05-03T10:49:25.064Z,979.65
2019-05-03T10:50:25.361Z,979.63
2019-05-03T10:51:25.060Z,979.63
2019-05-03T10:52:25.757Z,979.62
2019-05-03T10:53:25.067Z,979.59
2019-05-03T10:54:25.074Z,979.59
2019-05-03T10:55:25.129Z,979.60
2019-05-03T10:56:26.803Z,979.58
2019-05-03T10:57:25.077Z,979.55
2019-05-03T10:58:25.105Z,979.54
2019-05-03T10:59:25.079Z,979.60
2019-05-03T11:00:42.466Z,979.59
2019-05-03T11:01:25.083Z,979.61
2019-05-03T11:02:25.392Z,979.55
2019-05-03T11:03:25.099Z,979.62
2019-05-03T11:04:25.090Z,979.59
2019-05-03T11:05:25.101Z,979.61
2019-05-03T11:06:25.478Z,979.54
2019-05-03T11:07:25.657Z,979.55
2019-05-03T11:08:25.102Z,979.51
2019-05-03T11:09:25.883Z,979.51
2019-05-03T11:10:25.333Z,979.50
2019-05-03T11:11:25.896Z,979.50
2019-05-03T11:12:25.472Z,979.51
2019-05-03T11:13:26.427Z,979.51
2019-05-03T11:14:25.495Z,979.54
2019-05-03T11:15:25.918Z,979.49
2019-05-03T11:16:25.521Z,979.49
2019-05-03T11:17:25.614Z,979.47
2019-05-03T11:18:25.311Z,979.48
2019-05-03T11:19:25.544Z,979.44
2019-05-03T11:20:29.066Z,979.43
2019-05-03T11:21:30.831Z,979.45
2019-05-03T11:22:25.346Z,979.42
2019-05-03T11:23:25.232Z,979.42
2019-05-03T11:24:27.167Z,979.41
2019-05-03T11:25:25.157Z,979.40
2019-05-03T11:26:25.337Z,979.44
2019-05-03T11:27:25.184Z,979.39
2019-05-03T11:28:25.165Z,979.39
2019-05-03T11:29:25.173Z,979.41
2019-05-03T11:30:25.172Z,979.38
2019-05-03T11:31:25.173Z,979.37
2019-05-03T11:32:25.516Z,979.39
2019-05-03T11:33:25.182Z,979.37
2019-05-03T11:34:25.407Z,979.37
2019-05-03T11:35:25.191Z,979.34
2019-05-03T11:36:25.357Z,979.37
2019-05-03T11:37:25.228Z,979.34
2019-05-03T11:38:25.450Z,979.35
2019-05-03T11:39:25.233Z,979.37
2019-05-03T11:40:25.292Z,979.38
2019-05-03T11:41:32.519Z,979.37
2019-05-03T11:42:25.211Z,979.34
2019-05-03T11:43:25.222Z,979.35
2019-05-03T11:44:25.217Z,979.34
2019-05-03T11:45:25.227Z,979.35
2019-05-03T11:46:25.227Z,979.36
2019-05-03T11:47:27.541Z,979.32
2019-05-03T11:48:25.398Z,979.35
2019-05-03T11:49:25.515Z,979.34
2019-05-03T11:50:25.480Z,979.34
2019-05-03T11:51:25.241Z,979.31
2019-05-03T11:52:25.867Z,979.31
2019-05-03T11:53:25.322Z,979.30
2019-05-03T11:54:25.249Z,979.29
2019-05-03T11:55:26.827Z,979.27
2019-05-03T11:56:25.256Z,979.25
2019-05-03T11:57:26.280Z,979.28
2019-05-03T11:58:26.971Z,979.23
2019-05-03T11:59:26.457Z,979.34
2019-05-03T12:00:25.358Z,979.29
2019-05-03T12:01:25.638Z,979.30
2019-05-03T12:02:25.277Z,979.34
2019-05-03T12:03:25.275Z,979.27
2019-05-03T12:04:25.276Z,979.27
2019-05-03T12:05:25.283Z,979.27
2019-05-03T12:06:25.283Z,979.27
2019-05-03T12:07:38.620Z,979.29
2019-05-03T12:08:25.371Z,979.30
2019-05-03T12:09:25.290Z,979.26
2019-05-03T12:10:37.256Z,979.26
2019-05-03T12:11:25.298Z,979.26
2019-05-03T12:12:25.301Z,979.29
2019-05-03T12:13:25.303Z,979.27
2019-05-03T12:14:25.307Z,979.26
2019-05-03T12:15:25.310Z,979.23
2019-05-03T12:17:06.833Z,979.27
2019-05-03T12:17:29.138Z,979.18
2019-05-03T12:18:26.038Z,979.26
2019-05-03T12:19:30.682Z,979.24
2019-05-03T12:20:28.647Z,979.20
2019-05-03T12:21:27.404Z,979.20
2019-05-03T12:22:26.083Z,979.20
2019-05-03T12:23:26.102Z,979.16
2019-05-03T12:24:26.722Z,979.15
2019-05-03T12:25:26.014Z,979.15
2019-05-03T12:26:30.044Z,979.13
2019-05-03T12:27:25.349Z,979.14
2019-05-03T12:28:25.685Z,979.14
2019-05-03T12:29:25.363Z,979.12
2019-05-03T12:30:27.684Z,979.13
2019-05-03T12:31:35.876Z,979.14
2019-05-03T12:32:25.369Z,979.13
2019-05-03T12:33:26.093Z,979.12
2019-05-03T12:34:25.681Z,979.09
2019-05-03T12:35:25.376Z,979.08
2019-05-03T12:36:25.375Z,979.01
2019-05-03T12:37:25.376Z,979.01
2019-05-03T12:38:25.653Z,979.05
2019-05-03T12:39:30.124Z,979.03
2019-05-03T12:40:25.611Z,979.01
2019-05-03T12:41:25.552Z,979.03
2019-05-03T12:42:25.654Z,978.98
2019-05-03T12:43:25.752Z,979.01
2019-05-03T12:44:25.398Z,978.99
2019-05-03T12:45:25.403Z,978.94
2019-05-03T12:46:26.182Z,978.93
2019-05-03T12:47:25.406Z,978.93
2019-05-03T12:48:25.409Z,978.93
2019-05-03T12:49:25.413Z,978.94
2019-05-03T12:50:25.427Z,978.90
2019-05-03T12:51:25.572Z,978.91
2019-05-03T12:52:26.792Z,978.92
2019-05-03T12:53:25.434Z,978.92
2019-05-03T12:54:25.432Z,978.91
2019-05-03T12:55:25.443Z,978.90
2019-05-03T12:56:32.313Z,978.89
2019-05-03T12:57:25.438Z,978.90
2019-05-03T12:58:25.459Z,978.90
2019-05-03T12:59:26.726Z,978.87
2019-05-03T13:00:25.451Z,978.87